createdAt,value
2019-01-13T00:00:23.208Z,0.50
2019-01-13T00:01:26.770Z,0.50
2019-01-13T00:02:30.735Z,0.40
2019-01-13T00:03:34.330Z,0.42
2019-01-13T00:04:37.818Z,0.60
2019-01-13T00:05:41.308Z,0.40
2019-01-13T00:06:44.799Z,0.50
2019-01-13T00:07:48.358Z,0.45
2019-01-13T00:08:51.879Z,0.50
2019-01-13T00:09:55.303Z,0.40
2019-01-13T00:10:58.801Z,0.40
2019-01-13T00:12:02.296Z,0.40
2019-01-13T00:13:05.792Z,0.40
2019-01-13T00:14:09.309Z,0.50
2019-01-13T00:15:12.858Z,0.40
2019-01-13T00:16:16.286Z,0.50
2019-01-13T00:17:19.778Z,0.50
2019-01-13T00:18:23.274Z,0.47
2019-01-13T00:19:26.816Z,0.42
2019-01-13T00:20:30.345Z,0.50
2019-01-13T00:21:33.896Z,0.50
2019-01-13T00:22:37.471Z,0.60
2019-01-13T00:23:40.893Z,0.50
2019-01-13T00:24:44.355Z,0.40
2019-01-13T00:25:47.842Z,0.50
2019-01-13T00:26:51.316Z,0.47
2019-01-13T00:27:54.750Z,0.40
2019-01-13T00:28:58.403Z,0.50
2019-01-13T00:30:01.931Z,0.50
2019-01-13T00:31:05.506Z,0.50
2019-01-13T00:32:08.995Z,0.40
2019-01-13T00:33:12.427Z,0.60
2019-01-13T00:34:15.855Z,0.50
2019-01-13T00:35:19.303Z,0.50
2019-01-13T00:36:22.764Z,0.60
2019-01-13T00:37:26.192Z,0.50
2019-01-13T00:38:29.759Z,0.50
2019-01-13T00:39:33.170Z,0.50
2019-01-13T00:40:36.683Z,0.40
2019-01-13T00:41:40.175Z,0.60
2019-01-13T00:42:43.664Z,0.50
2019-01-13T00:43:47.091Z,0.50
2019-01-13T00:44:50.624Z,0.50
2019-01-13T00:45:54.024Z,0.60
2019-01-13T00:46:57.443Z,0.60
2019-01-13T00:48:00.872Z,0.62
2019-01-13T00:49:04.728Z,0.53
2019-01-13T00:50:13.308Z,0.40
2019-01-13T00:51:16.761Z,0.45
2019-01-13T00:52:20.176Z,0.50
2019-01-13T00:53:23.612Z,0.55
2019-01-13T00:54:27.035Z,0.50
2019-01-13T00:55:30.578Z,0.60
2019-01-13T00:56:33.984Z,0.40
2019-01-13T00:57:37.542Z,0.50
2019-01-13T00:58:40.976Z,0.47
2019-01-13T00:59:44.399Z,0.40
2019-01-13T01:00:47.816Z,0.50
2019-01-13T01:01:51.498Z,0.40
2019-01-13T01:02:55.056Z,0.40
2019-01-13T01:03:58.566Z,0.50
2019-01-13T01:05:01.987Z,0.50
2019-01-13T01:06:05.747Z,0.50
2019-01-13T01:07:09.409Z,0.42
2019-01-13T01:08:14.637Z,0.40
2019-01-13T01:09:18.133Z,0.50
2019-01-13T01:10:21.797Z,0.50
2019-01-13T01:11:25.307Z,0.50
2019-01-13T01:12:28.894Z,0.40
2019-01-13T01:13:32.460Z,0.50
2019-01-13T01:14:35.946Z,0.50
2019-01-13T01:15:39.515Z,0.60
2019-01-13T01:16:42.948Z,0.40
2019-01-13T01:17:46.912Z,0.50
2019-01-13T01:18:50.407Z,0.50
2019-01-13T01:19:53.825Z,0.45
2019-01-13T01:20:57.311Z,0.50
2019-01-13T01:22:00.764Z,0.50
2019-01-13T01:23:04.653Z,0.78
2019-01-13T01:24:08.139Z,0.40
2019-01-13T01:25:13.704Z,0.50
2019-01-13T01:26:17.186Z,0.40
2019-01-13T01:27:20.648Z,0.60
2019-01-13T01:28:24.136Z,0.40
2019-01-13T01:29:27.558Z,0.55
2019-01-13T01:30:33.544Z,0.80
2019-01-13T01:31:36.196Z,0.50
2019-01-13T01:32:39.771Z,0.40
2019-01-13T01:33:43.334Z,0.50
2019-01-13T01:34:46.768Z,0.40
2019-01-13T01:35:50.200Z,0.50
2019-01-13T01:36:54.303Z,0.40
2019-01-13T01:37:57.718Z,0.50
2019-01-13T01:39:01.175Z,0.60
2019-01-13T01:40:07.659Z,0.40
2019-01-13T01:41:11.181Z,0.50
2019-01-13T01:42:14.649Z,0.50
2019-01-13T01:43:18.146Z,0.40
2019-01-13T01:44:21.584Z,0.40
2019-01-13T01:45:25.143Z,0.40
2019-01-13T01:46:28.663Z,0.50
2019-01-13T01:47:32.095Z,0.40
2019-01-13T01:48:35.528Z,0.40
2019-01-13T01:49:38.949Z,0.50
2019-01-13T01:50:42.507Z,0.40
2019-01-13T01:51:45.937Z,0.50
2019-01-13T01:52:49.392Z,0.50
2019-01-13T01:53:52.807Z,0.40
2019-01-13T01:54:56.299Z,0.40
2019-01-13T01:55:59.726Z,0.40
2019-01-13T01:57:03.219Z,0.42
2019-01-13T01:58:06.812Z,0.40
2019-01-13T01:59:10.243Z,0.50
2019-01-13T02:00:21.763Z,0.60
2019-01-13T02:01:25.257Z,0.55
2019-01-13T02:02:28.816Z,0.50
2019-01-13T02:03:32.263Z,0.50
2019-01-13T02:04:35.751Z,0.40
2019-01-13T02:05:39.172Z,0.50
2019-01-13T02:06:42.701Z,0.47
2019-01-13T02:07:46.277Z,0.50
2019-01-13T02:08:49.699Z,0.50
2019-01-13T02:09:53.120Z,0.45
2019-01-13T02:10:56.550Z,0.62
2019-01-13T02:11:59.980Z,0.40
2019-01-13T02:13:03.496Z,0.47
2019-01-13T02:14:06.990Z,0.40
2019-01-13T02:15:15.989Z,0.45
2019-01-13T02:16:19.556Z,0.50
2019-01-13T02:17:23.057Z,0.60
2019-01-13T02:18:26.522Z,0.50
2019-01-13T02:19:30.016Z,0.45
2019-01-13T02:20:33.443Z,0.60
2019-01-13T02:21:36.876Z,0.50
2019-01-13T02:22:40.432Z,0.42
2019-01-13T02:23:43.875Z,0.40
2019-01-13T02:24:47.301Z,0.40
2019-01-13T02:25:50.792Z,0.50
2019-01-13T02:26:54.283Z,0.50
2019-01-13T02:27:57.821Z,0.78
2019-01-13T02:29:01.312Z,0.50
2019-01-13T02:30:07.858Z,0.40
2019-01-13T02:31:11.286Z,0.60
2019-01-13T02:32:14.703Z,0.50
2019-01-13T02:33:18.213Z,0.50
2019-01-13T02:34:21.646Z,0.45
2019-01-13T02:35:25.189Z,0.40
2019-01-13T02:36:28.608Z,0.60
2019-01-13T02:37:32.099Z,0.60
2019-01-13T02:38:35.620Z,0.60
2019-01-13T02:39:39.121Z,0.57
2019-01-13T02:40:42.547Z,0.50
2019-01-13T02:41:46.047Z,0.60
2019-01-13T02:42:49.869Z,0.70
2019-01-13T02:43:53.362Z,0.50
2019-01-13T02:44:56.785Z,0.80
2019-01-13T02:46:00.216Z,0.70
2019-01-13T02:47:03.709Z,0.60
2019-01-13T02:48:07.290Z,0.60
2019-01-13T02:49:10.731Z,0.50
2019-01-13T02:50:14.704Z,0.60
2019-01-13T02:51:18.193Z,0.60
2019-01-13T02:52:21.612Z,0.70
2019-01-13T02:53:25.125Z,0.70
2019-01-13T02:54:28.543Z,0.53
2019-01-13T02:55:31.967Z,0.60
2019-01-13T02:56:35.388Z,0.82
2019-01-13T02:57:38.971Z,0.65
2019-01-13T02:58:42.388Z,0.50
2019-01-13T02:59:45.838Z,0.53
2019-01-13T03:00:56.857Z,0.60
2019-01-13T03:01:54.868Z,0.68
2019-01-13T03:02:58.375Z,0.70
2019-01-13T03:04:01.871Z,0.70
2019-01-13T03:05:08.640Z,0.70
2019-01-13T03:06:12.208Z,0.80
2019-01-13T03:07:15.709Z,0.60
2019-01-13T03:08:19.287Z,0.60
2019-01-13T03:09:22.793Z,0.70
2019-01-13T03:10:26.289Z,0.50
2019-01-13T03:11:29.856Z,0.70
2019-01-13T03:12:33.293Z,0.70
2019-01-13T03:13:36.835Z,0.70
2019-01-13T03:14:40.315Z,0.70
2019-01-13T03:15:43.883Z,0.70
2019-01-13T03:16:47.311Z,0.70
2019-01-13T03:17:51.513Z,0.70
2019-01-13T03:18:55.010Z,0.80
2019-01-13T03:19:58.507Z,0.70
2019-01-13T03:21:02.007Z,0.70
2019-01-13T03:22:05.563Z,0.70
2019-01-13T03:23:09.081Z,0.60
2019-01-13T03:24:12.576Z,0.70
2019-01-13T03:25:18.243Z,0.80
2019-01-13T03:26:21.663Z,0.90
2019-01-13T03:27:25.157Z,0.80
2019-01-13T03:28:28.873Z,0.80
2019-01-13T03:29:32.297Z,0.80
2019-01-13T03:30:35.792Z,0.70
2019-01-13T03:31:39.288Z,0.80
2019-01-13T03:32:42.713Z,0.85
2019-01-13T03:33:46.228Z,0.82
2019-01-13T03:34:49.659Z,0.70
2019-01-13T03:35:53.137Z,0.85
2019-01-13T03:36:56.502Z,0.70
2019-01-13T03:38:00.021Z,0.85
2019-01-13T03:39:04.986Z,0.90
2019-01-13T03:40:11.512Z,0.72
2019-01-13T03:41:15.075Z,0.70
2019-01-13T03:42:18.504Z,0.85
2019-01-13T03:43:21.939Z,0.80
2019-01-13T03:44:25.444Z,0.70
2019-01-13T03:45:28.974Z,0.70
2019-01-13T03:46:32.402Z,0.70
2019-01-13T03:47:35.893Z,0.82
2019-01-13T03:48:39.406Z,0.70
2019-01-13T03:49:42.829Z,0.90
2019-01-13T03:50:46.255Z,0.85
2019-01-13T03:51:49.677Z,0.82
2019-01-13T03:52:53.543Z,1.07
2019-01-13T03:53:56.953Z,0.80
2019-01-13T03:55:00.381Z,0.62
2019-01-13T03:56:03.871Z,0.88
2019-01-13T03:57:07.296Z,1.00
2019-01-13T03:58:11.251Z,0.90
2019-01-13T03:59:14.747Z,0.80
2019-01-13T04:00:20.318Z,0.98
2019-01-13T04:01:23.743Z,0.85
2019-01-13T04:02:27.183Z,0.82
2019-01-13T04:03:30.678Z,0.80
2019-01-13T04:04:34.166Z,1.10
2019-01-13T04:05:37.586Z,0.90
2019-01-13T04:06:41.001Z,0.70
2019-01-13T04:07:44.572Z,0.95
2019-01-13T04:08:48.078Z,1.00
2019-01-13T04:09:51.574Z,0.85
2019-01-13T04:10:55.063Z,0.90
2019-01-13T04:11:58.491Z,0.88
2019-01-13T04:13:01.979Z,0.88
2019-01-13T04:14:05.493Z,0.80
2019-01-13T04:15:15.027Z,1.02
2019-01-13T04:16:18.822Z,1.10
2019-01-13T04:17:22.415Z,0.90
2019-01-13T04:18:26.005Z,0.90
2019-01-13T04:19:29.433Z,0.90
2019-01-13T04:20:32.929Z,1.10
2019-01-13T04:21:36.408Z,0.85
2019-01-13T04:22:39.830Z,0.90
2019-01-13T04:23:43.343Z,0.95
2019-01-13T04:24:46.764Z,1.00
2019-01-13T04:25:50.203Z,0.98
2019-01-13T04:26:53.626Z,1.07
2019-01-13T04:27:57.126Z,1.00
2019-01-13T04:29:00.572Z,1.12
2019-01-13T04:30:06.672Z,0.95
2019-01-13T04:31:10.163Z,0.98
2019-01-13T04:32:13.662Z,0.90
2019-01-13T04:33:17.175Z,1.32
2019-01-13T04:34:20.612Z,0.90
2019-01-13T04:35:24.033Z,0.98
2019-01-13T04:36:27.454Z,1.00
2019-01-13T04:37:30.888Z,1.10
2019-01-13T04:38:34.329Z,0.88
2019-01-13T04:39:37.793Z,1.05
2019-01-13T04:40:41.224Z,0.95
2019-01-13T04:41:44.710Z,1.10
2019-01-13T04:42:48.142Z,1.17
2019-01-13T04:43:51.597Z,1.05
2019-01-13T04:44:55.030Z,1.05
2019-01-13T04:45:58.526Z,1.10
2019-01-13T04:47:01.961Z,0.90
2019-01-13T04:48:05.522Z,0.90
2019-01-13T04:49:08.965Z,0.80
2019-01-13T04:50:14.224Z,0.93
2019-01-13T04:51:17.712Z,0.90
2019-01-13T04:52:21.207Z,1.40
2019-01-13T04:53:24.696Z,1.25
2019-01-13T04:54:28.138Z,1.30
2019-01-13T04:55:31.637Z,1.30
2019-01-13T04:56:35.120Z,1.00
2019-01-13T04:57:38.608Z,1.10
2019-01-13T04:58:42.038Z,1.37
2019-01-13T04:59:45.483Z,1.20
2019-01-13T05:00:48.907Z,1.02
2019-01-13T05:01:52.464Z,1.37
2019-01-13T05:02:55.965Z,1.15
2019-01-13T05:03:59.387Z,1.50
2019-01-13T05:05:02.903Z,1.27
2019-01-13T05:06:06.322Z,1.67
2019-01-13T05:07:09.746Z,1.32
2019-01-13T05:08:13.241Z,1.77
2019-01-13T05:09:16.670Z,1.65
2019-01-13T05:10:21.784Z,1.45
2019-01-13T05:11:25.205Z,1.60
2019-01-13T05:12:28.638Z,1.55
2019-01-13T05:13:32.056Z,1.45
2019-01-13T05:14:35.500Z,1.90
2019-01-13T05:15:38.948Z,1.90
2019-01-13T05:16:42.371Z,1.70
2019-01-13T05:17:45.963Z,1.60
2019-01-13T05:18:49.464Z,1.67
2019-01-13T05:19:52.933Z,1.65
2019-01-13T05:20:56.422Z,1.40
2019-01-13T05:21:59.906Z,1.60
2019-01-13T05:23:03.329Z,1.90
2019-01-13T05:24:06.830Z,1.52
2019-01-13T05:25:10.562Z,1.55
2019-01-13T05:26:13.951Z,2.00
2019-01-13T05:27:17.370Z,1.50
2019-01-13T05:28:20.795Z,1.77
2019-01-13T05:29:24.246Z,1.60
2019-01-13T05:30:27.678Z,1.95
2019-01-13T05:31:31.110Z,1.95
2019-01-13T05:32:34.542Z,1.67
2019-01-13T05:33:37.964Z,1.67
2019-01-13T05:34:41.407Z,1.52
2019-01-13T05:35:44.903Z,1.72
2019-01-13T05:36:48.334Z,1.60
2019-01-13T05:37:51.834Z,1.70
2019-01-13T05:38:55.281Z,1.60
2019-01-13T05:39:58.730Z,1.98
2019-01-13T05:41:02.167Z,1.82
2019-01-13T05:42:05.668Z,1.37
2019-01-13T05:43:09.231Z,1.67
2019-01-13T05:44:12.659Z,1.57
2019-01-13T05:45:18.406Z,1.55
2019-01-13T05:46:21.851Z,1.47
2019-01-13T05:47:25.268Z,1.50
2019-01-13T05:48:28.765Z,1.82
2019-01-13T05:49:32.256Z,1.70
2019-01-13T05:50:36.070Z,1.60
2019-01-13T05:51:39.503Z,1.85
2019-01-13T05:52:43.978Z,1.67
2019-01-13T05:53:47.367Z,1.40
2019-01-13T05:54:50.788Z,1.60
2019-01-13T05:55:54.236Z,1.70
2019-01-13T05:56:57.824Z,1.70
2019-01-13T05:58:01.324Z,1.70
2019-01-13T05:59:04.875Z,1.65
2019-01-13T06:00:11.359Z,1.70
2019-01-13T06:01:14.870Z,1.40
2019-01-13T06:02:18.295Z,1.77
2019-01-13T06:03:21.714Z,1.57
2019-01-13T06:04:25.131Z,1.90
2019-01-13T06:05:28.619Z,2.10
2019-01-13T06:06:32.160Z,1.20
2019-01-13T06:07:35.704Z,1.60
2019-01-13T06:08:39.202Z,1.60
2019-01-13T06:09:42.626Z,1.50
2019-01-13T06:10:46.116Z,1.80
2019-01-13T06:11:49.558Z,1.40
2019-01-13T06:12:53.064Z,1.65
2019-01-13T06:13:56.656Z,1.70
2019-01-13T06:15:00.129Z,1.62
2019-01-13T06:16:03.650Z,2.30
2019-01-13T06:17:07.107Z,1.90
2019-01-13T06:18:10.611Z,2.15
2019-01-13T06:19:14.088Z,1.80
2019-01-13T06:20:22.654Z,1.50
2019-01-13T06:21:26.179Z,1.75
2019-01-13T06:22:29.594Z,1.75
2019-01-13T06:23:33.022Z,1.77
2019-01-13T06:24:36.441Z,2.00
2019-01-13T06:25:39.870Z,1.67
2019-01-13T06:26:43.314Z,1.70
2019-01-13T06:27:46.875Z,1.90
2019-01-13T06:28:50.368Z,2.15
2019-01-13T06:29:53.784Z,1.90
2019-01-13T06:30:57.249Z,2.05
2019-01-13T06:32:00.691Z,2.40
2019-01-13T06:33:04.113Z,2.20
2019-01-13T06:34:07.547Z,2.10
2019-01-13T06:35:11.036Z,1.67
2019-01-13T06:36:14.533Z,1.90
2019-01-13T06:37:17.984Z,2.30
2019-01-13T06:38:21.468Z,1.98
2019-01-13T06:39:24.958Z,2.50
2019-01-13T06:40:28.409Z,2.15
2019-01-13T06:41:31.819Z,2.45
2019-01-13T06:42:36.193Z,2.90
2019-01-13T06:43:39.632Z,2.20
2019-01-13T06:44:43.188Z,2.35
2019-01-13T06:45:46.633Z,2.05
2019-01-13T06:46:50.068Z,2.40
2019-01-13T06:47:53.635Z,2.60
2019-01-13T06:48:58.308Z,2.67
2019-01-13T06:50:01.757Z,2.52
2019-01-13T06:51:05.248Z,2.30
2019-01-13T06:52:08.691Z,2.47
2019-01-13T06:53:12.112Z,2.60
2019-01-13T06:54:15.550Z,2.58
2019-01-13T06:55:19.078Z,2.77
2019-01-13T06:56:22.516Z,2.50
2019-01-13T06:57:26.003Z,2.20
2019-01-13T06:58:29.448Z,2.62
2019-01-13T06:59:32.939Z,2.40
2019-01-13T07:00:36.428Z,2.35
2019-01-13T07:01:39.878Z,2.42
2019-01-13T07:02:43.301Z,2.22
2019-01-13T07:03:46.722Z,2.62
2019-01-13T07:04:50.145Z,2.05
2019-01-13T07:05:53.562Z,2.15
2019-01-13T07:06:57.005Z,2.62
2019-01-13T07:08:00.432Z,2.65
2019-01-13T07:09:05.437Z,2.42
2019-01-13T07:10:10.918Z,2.45
2019-01-13T07:11:14.349Z,2.35
2019-01-13T07:12:17.782Z,2.20
2019-01-13T07:13:21.319Z,2.20
2019-01-13T07:14:24.747Z,2.45
2019-01-13T07:15:28.289Z,2.60
2019-01-13T07:16:31.784Z,2.05
2019-01-13T07:17:35.291Z,2.55
2019-01-13T07:18:38.714Z,1.92
2019-01-13T07:19:42.123Z,2.52
2019-01-13T07:20:45.636Z,2.17
2019-01-13T07:21:49.067Z,2.02
2019-01-13T07:22:52.494Z,2.10
2019-01-13T07:23:55.918Z,2.15
2019-01-13T07:24:59.356Z,2.80
2019-01-13T07:26:02.785Z,2.47
2019-01-13T07:27:06.233Z,2.42
2019-01-13T07:28:09.662Z,2.30
2019-01-13T07:29:13.152Z,2.10
2019-01-13T07:30:22.243Z,1.95
2019-01-13T07:31:25.965Z,2.17
2019-01-13T07:32:29.476Z,1.45
2019-01-13T07:33:32.911Z,1.87
2019-01-13T07:34:36.328Z,1.70
2019-01-13T07:35:39.760Z,1.82
2019-01-13T07:36:43.206Z,2.05
2019-01-13T07:37:46.705Z,1.42
2019-01-13T07:38:50.129Z,1.50
2019-01-13T07:39:53.626Z,1.67
2019-01-13T07:40:57.119Z,2.00
2019-01-13T07:42:00.573Z,1.50
2019-01-13T07:43:04.123Z,1.60
2019-01-13T07:44:07.633Z,1.50
2019-01-13T07:45:13.516Z,1.90
2019-01-13T07:46:16.922Z,2.08
2019-01-13T07:47:20.435Z,1.92
2019-01-13T07:48:23.900Z,1.60
2019-01-13T07:49:27.318Z,1.82
2019-01-13T07:50:30.735Z,1.52
2019-01-13T07:51:34.223Z,1.75
2019-01-13T07:52:37.754Z,1.60
2019-01-13T07:53:41.184Z,1.40
2019-01-13T07:54:44.620Z,1.80
2019-01-13T07:55:48.102Z,1.17
2019-01-13T07:56:51.682Z,1.42
2019-01-13T07:57:55.201Z,1.70
2019-01-13T07:58:58.621Z,1.60
2019-01-13T08:00:02.050Z,1.80
2019-01-13T08:01:06.015Z,1.20
2019-01-13T08:02:09.587Z,1.30
2019-01-13T08:03:13.042Z,1.30
2019-01-13T08:04:16.533Z,1.40
2019-01-13T08:05:20.031Z,1.50
2019-01-13T08:06:23.522Z,1.57
2019-01-13T08:07:26.961Z,1.60
2019-01-13T08:08:30.401Z,1.32
2019-01-13T08:09:33.822Z,1.60
2019-01-13T08:10:37.314Z,1.37
2019-01-13T08:11:40.915Z,1.32
2019-01-13T08:12:44.987Z,1.40
2019-01-13T08:13:48.409Z,1.45
2019-01-13T08:14:51.838Z,1.10
2019-01-13T08:15:55.250Z,1.77
2019-01-13T08:16:58.743Z,1.30
2019-01-13T08:18:02.314Z,1.40
2019-01-13T08:19:05.896Z,2.05
2019-01-13T08:20:15.102Z,2.08
2019-01-13T08:21:18.603Z,2.40
2019-01-13T08:22:22.053Z,1.90
2019-01-13T08:23:25.487Z,1.82
2019-01-13T08:24:29.204Z,2.00
2019-01-13T08:25:32.659Z,1.30
2019-01-13T08:26:36.096Z,1.42
2019-01-13T08:27:39.587Z,1.40
2019-01-13T08:28:43.036Z,1.37
2019-01-13T08:29:46.468Z,1.52
2019-01-13T08:30:49.971Z,0.98
2019-01-13T08:31:53.469Z,1.47
2019-01-13T08:32:57.038Z,1.67
2019-01-13T08:34:00.567Z,1.67
2019-01-13T08:35:04.256Z,1.27
2019-01-13T08:36:07.822Z,1.42
2019-01-13T08:37:11.325Z,1.40
2019-01-13T08:38:14.824Z,1.17
2019-01-13T08:39:18.273Z,1.50
2019-01-13T08:40:21.839Z,1.40
2019-01-13T08:41:25.330Z,1.20
2019-01-13T08:42:28.746Z,1.40
2019-01-13T08:43:32.246Z,1.15
2019-01-13T08:44:35.701Z,1.30
2019-01-13T08:45:39.130Z,1.27
2019-01-13T08:46:42.553Z,1.35
2019-01-13T08:47:46.049Z,1.30
2019-01-13T08:48:49.473Z,1.10
2019-01-13T08:49:52.905Z,1.17
2019-01-13T08:50:56.399Z,1.20
2019-01-13T08:51:59.850Z,0.90
2019-01-13T08:53:03.271Z,1.22
2019-01-13T08:54:06.725Z,1.22
2019-01-13T08:55:10.503Z,1.15
2019-01-13T08:56:14.010Z,0.90
2019-01-13T08:57:17.456Z,1.17
2019-01-13T08:58:20.876Z,1.25
2019-01-13T08:59:24.302Z,1.20
2019-01-13T09:00:29.382Z,0.98
2019-01-13T09:01:32.811Z,1.20
2019-01-13T09:02:36.337Z,1.25
2019-01-13T09:03:39.755Z,1.20
2019-01-13T09:04:43.277Z,1.00
2019-01-13T09:05:46.725Z,1.15
2019-01-13T09:06:50.151Z,1.00
2019-01-13T09:07:53.720Z,1.07
2019-01-13T09:08:57.201Z,0.90
2019-01-13T09:10:00.690Z,1.00
2019-01-13T09:11:04.276Z,1.05
2019-01-13T09:12:07.839Z,1.05
2019-01-13T09:13:11.347Z,0.82
2019-01-13T09:14:14.807Z,1.05
2019-01-13T09:15:20.475Z,1.02
2019-01-13T09:16:24.549Z,0.90
2019-01-13T09:17:27.996Z,1.17
2019-01-13T09:18:31.424Z,1.17
2019-01-13T09:19:34.978Z,1.00
2019-01-13T09:20:38.546Z,1.17
2019-01-13T09:21:42.094Z,1.10
2019-01-13T09:22:45.830Z,1.70
2019-01-13T09:23:49.262Z,1.12
2019-01-13T09:24:52.704Z,1.10
2019-01-13T09:25:56.131Z,1.60
2019-01-13T09:26:59.586Z,1.05
2019-01-13T09:28:03.640Z,1.25
2019-01-13T09:29:07.248Z,1.02
2019-01-13T09:30:16.461Z,1.10
2019-01-13T09:31:19.893Z,1.20
2019-01-13T09:32:23.335Z,1.12
2019-01-13T09:33:26.769Z,1.20
2019-01-13T09:34:30.207Z,1.10
2019-01-13T09:35:33.785Z,1.52
2019-01-13T09:36:37.216Z,1.35
2019-01-13T09:37:40.787Z,1.10
2019-01-13T09:38:44.283Z,1.20
2019-01-13T09:39:47.716Z,1.10
2019-01-13T09:40:51.275Z,1.30
2019-01-13T09:41:54.702Z,0.85
2019-01-13T09:42:59.092Z,1.00
2019-01-13T09:44:02.593Z,1.20
2019-01-13T09:45:09.156Z,1.17
2019-01-13T09:46:12.790Z,0.98
2019-01-13T09:47:16.423Z,1.12
2019-01-13T09:48:20.057Z,0.90
2019-01-13T09:49:23.553Z,0.80
2019-01-13T09:50:27.068Z,1.10
2019-01-13T09:51:30.495Z,0.80
2019-01-13T09:52:33.953Z,0.93
2019-01-13T09:53:37.400Z,0.98
2019-01-13T09:54:40.939Z,0.70
2019-01-13T09:55:44.422Z,0.90
2019-01-13T09:56:47.849Z,0.78
2019-01-13T09:57:51.534Z,0.60
2019-01-13T09:58:54.968Z,0.85
2019-01-13T09:59:58.392Z,1.00
2019-01-13T10:01:01.881Z,0.85
2019-01-13T10:02:05.446Z,0.80
2019-01-13T10:03:09.152Z,0.80
2019-01-13T10:04:12.589Z,0.88
2019-01-13T10:05:16.152Z,0.70
2019-01-13T10:06:19.714Z,0.90
2019-01-13T10:07:23.144Z,0.70
2019-01-13T10:08:26.587Z,0.80
2019-01-13T10:09:30.019Z,0.80
2019-01-13T10:10:33.587Z,0.80
2019-01-13T10:11:37.080Z,0.95
2019-01-13T10:12:40.653Z,1.15
2019-01-13T10:13:44.193Z,1.00
2019-01-13T10:14:47.638Z,0.90
2019-01-13T10:15:51.112Z,0.80
2019-01-13T10:16:54.692Z,0.80
2019-01-13T10:17:58.176Z,1.00
2019-01-13T10:19:01.694Z,0.90
2019-01-13T10:20:08.452Z,0.60
2019-01-13T10:21:12.013Z,0.72
2019-01-13T10:22:15.506Z,0.70
2019-01-13T10:23:18.932Z,0.70
2019-01-13T10:24:22.375Z,1.00
2019-01-13T10:25:25.894Z,2.95
2019-01-13T10:26:29.381Z,1.30
2019-01-13T10:27:32.883Z,0.70
2019-01-13T10:28:36.316Z,0.80
2019-01-13T10:29:39.754Z,0.82
2019-01-13T10:30:43.199Z,0.78
2019-01-13T10:31:46.688Z,0.70
2019-01-13T10:32:54.680Z,0.70
2019-01-13T10:33:55.406Z,0.78
2019-01-13T10:34:58.879Z,0.80
2019-01-13T10:36:02.390Z,0.80
2019-01-13T10:37:05.955Z,0.90
2019-01-13T10:38:09.389Z,0.62
2019-01-13T10:39:12.821Z,0.78
2019-01-13T10:40:21.560Z,0.60
2019-01-13T10:41:25.086Z,0.60
2019-01-13T10:42:28.589Z,0.70
2019-01-13T10:43:32.153Z,0.70
2019-01-13T10:44:35.615Z,0.60
2019-01-13T10:45:39.054Z,0.70
2019-01-13T10:46:42.667Z,0.50
2019-01-13T10:47:46.215Z,0.72
2019-01-13T10:48:49.641Z,0.75
2019-01-13T10:49:53.064Z,0.70
2019-01-13T10:50:56.557Z,0.70
2019-01-13T10:52:00.139Z,0.90
2019-01-13T10:53:03.720Z,0.90
2019-01-13T10:54:09.171Z,0.90
2019-01-13T10:55:12.810Z,0.60
2019-01-13T10:56:16.331Z,0.90
2019-01-13T10:57:19.756Z,0.72
2019-01-13T10:58:23.184Z,0.88
2019-01-13T10:59:26.600Z,0.95
2019-01-13T11:00:34.257Z,1.40
2019-01-13T11:01:37.849Z,1.15
2019-01-13T11:02:41.349Z,0.85
2019-01-13T11:03:44.985Z,0.72
2019-01-13T11:04:48.374Z,0.70
2019-01-13T11:05:51.886Z,0.60
2019-01-13T11:06:55.392Z,0.90
2019-01-13T11:07:58.957Z,0.70
2019-01-13T11:09:04.024Z,1.22
2019-01-13T11:10:10.596Z,0.98
2019-01-13T11:11:14.045Z,1.15
2019-01-13T11:12:17.477Z,0.50
2019-01-13T11:13:20.948Z,0.65
2019-01-13T11:14:24.335Z,0.70
2019-01-13T11:15:27.883Z,0.80
2019-01-13T11:16:31.470Z,0.50
2019-01-13T11:17:34.909Z,0.70
2019-01-13T11:18:38.345Z,0.70
2019-01-13T11:19:41.768Z,0.65
2019-01-13T11:20:45.190Z,0.82
2019-01-13T11:21:48.710Z,0.62
2019-01-13T11:22:52.404Z,0.68
2019-01-13T11:23:55.961Z,0.98
2019-01-13T11:24:59.469Z,0.90
2019-01-13T11:26:03.229Z,0.70
2019-01-13T11:27:06.658Z,0.80
2019-01-13T11:28:10.223Z,0.60
2019-01-13T11:29:13.715Z,0.80
2019-01-13T11:30:22.590Z,0.70
2019-01-13T11:31:26.192Z,0.60
2019-01-13T11:32:29.631Z,0.60
2019-01-13T11:33:33.049Z,0.50
2019-01-13T11:34:36.485Z,0.60
2019-01-13T11:35:40.064Z,0.57
2019-01-13T11:36:43.499Z,0.60
2019-01-13T11:37:47.356Z,0.65
2019-01-13T11:38:50.768Z,0.80
2019-01-13T11:39:54.188Z,0.60
2019-01-13T11:40:57.724Z,0.60
2019-01-13T11:42:01.201Z,0.65
2019-01-13T11:43:04.772Z,0.80
2019-01-13T11:44:08.262Z,0.50
2019-01-13T11:45:12.426Z,0.60
2019-01-13T11:46:15.883Z,0.70
2019-01-13T11:47:19.320Z,0.68
2019-01-13T11:48:22.754Z,0.70
2019-01-13T11:49:26.253Z,1.25
2019-01-13T11:50:29.835Z,0.60
2019-01-13T11:51:33.256Z,0.80
2019-01-13T11:52:36.775Z,0.60
2019-01-13T11:53:40.207Z,0.80
2019-01-13T11:54:43.639Z,0.88
2019-01-13T11:55:47.068Z,0.70
2019-01-13T11:56:50.499Z,0.60
2019-01-13T11:57:53.914Z,0.57
2019-01-13T11:58:57.413Z,0.70
2019-01-13T12:00:00.933Z,0.68
2019-01-13T12:01:04.798Z,0.60
2019-01-13T12:02:08.535Z,0.60
2019-01-13T12:03:16.820Z,0.78
2019-01-13T12:04:17.378Z,0.60
2019-01-13T12:05:21.057Z,0.60
2019-01-13T12:06:24.557Z,0.60
2019-01-13T12:07:28.997Z,1.52
2019-01-13T12:08:32.460Z,1.02
2019-01-13T12:09:35.890Z,0.72
2019-01-13T12:10:39.380Z,0.60
2019-01-13T12:11:42.939Z,0.70
2019-01-13T12:12:46.596Z,0.70
2019-01-13T12:13:50.092Z,0.50
2019-01-13T12:14:53.946Z,0.60
2019-01-13T12:15:57.478Z,0.70
2019-01-13T12:17:00.938Z,0.60
2019-01-13T12:18:04.623Z,0.70
2019-01-13T12:19:08.044Z,0.70
2019-01-13T12:20:14.608Z,0.68
2019-01-13T12:21:18.226Z,0.62
2019-01-13T12:22:21.746Z,0.60
2019-01-13T12:23:25.233Z,0.60
2019-01-13T12:24:28.664Z,0.50
2019-01-13T12:25:32.085Z,0.60
2019-01-13T12:26:35.615Z,0.57
2019-01-13T12:27:39.127Z,0.70
2019-01-13T12:28:42.621Z,0.75
2019-01-13T12:29:46.187Z,0.60
2019-01-13T12:30:49.695Z,0.70
2019-01-13T12:31:53.168Z,0.60
2019-01-13T12:32:56.773Z,1.50
2019-01-13T12:34:00.194Z,0.70
2019-01-13T12:35:04.241Z,0.80
2019-01-13T12:36:07.737Z,0.70
2019-01-13T12:37:11.296Z,0.90
2019-01-13T12:38:14.747Z,1.07
2019-01-13T12:39:18.513Z,0.93
2019-01-13T12:40:24.101Z,0.70
2019-01-13T12:41:27.538Z,0.70
2019-01-13T12:42:30.964Z,0.55
2019-01-13T12:43:34.485Z,0.60
2019-01-13T12:44:37.918Z,1.02
2019-01-13T12:45:41.343Z,0.70
2019-01-13T12:46:44.832Z,0.88
2019-01-13T12:47:48.921Z,0.88
2019-01-13T12:48:52.549Z,0.60
2019-01-13T12:49:55.992Z,0.80
2019-01-13T12:50:59.600Z,0.70
2019-01-13T12:52:03.106Z,0.90
2019-01-13T12:53:06.714Z,1.00
2019-01-13T12:54:10.213Z,0.70
2019-01-13T12:55:13.773Z,0.95
2019-01-13T12:56:17.318Z,0.75
2019-01-13T12:57:20.806Z,0.82
2019-01-13T12:58:24.264Z,0.82
2019-01-13T12:59:27.697Z,1.07
2019-01-13T13:00:31.178Z,0.80
2019-01-13T13:01:34.667Z,0.65
2019-01-13T13:02:38.288Z,1.10
2019-01-13T13:03:41.749Z,0.70
2019-01-13T13:04:45.194Z,0.70
2019-01-13T13:05:48.600Z,0.80
2019-01-13T13:06:52.058Z,0.90
2019-01-13T13:07:55.522Z,0.62
2019-01-13T13:08:58.968Z,0.70
2019-01-13T13:10:02.528Z,0.90
2019-01-13T13:11:06.098Z,0.90
2019-01-13T13:12:09.513Z,0.70
2019-01-13T13:13:13.007Z,1.05
2019-01-13T13:14:16.512Z,1.07
2019-01-13T13:15:20.001Z,1.70
2019-01-13T13:16:23.507Z,1.32
2019-01-13T13:17:26.918Z,1.35
2019-01-13T13:18:30.344Z,3.65
2019-01-13T13:19:33.801Z,1.77
2019-01-13T13:20:37.327Z,0.80
2019-01-13T13:21:40.842Z,0.93
2019-01-13T13:22:44.560Z,0.60
2019-01-13T13:23:47.967Z,0.68
2019-01-13T13:24:51.610Z,1.17
2019-01-13T13:25:55.011Z,0.80
2019-01-13T13:26:58.439Z,0.88
2019-01-13T13:28:02.024Z,0.90
2019-01-13T13:29:05.592Z,0.90
2019-01-13T13:30:17.983Z,0.60
2019-01-13T13:31:21.551Z,0.85
2019-01-13T13:32:25.020Z,0.60
2019-01-13T13:33:28.595Z,0.70
2019-01-13T13:34:32.023Z,0.70
2019-01-13T13:35:39.630Z,0.70
2019-01-13T13:36:40.801Z,0.75
2019-01-13T13:37:44.553Z,0.98
2019-01-13T13:38:47.971Z,0.80
2019-01-13T13:39:51.461Z,0.80
2019-01-13T13:40:54.976Z,0.75
2019-01-13T13:41:58.397Z,0.90
2019-01-13T13:43:01.811Z,0.80
2019-01-13T13:44:05.309Z,0.80
2019-01-13T13:45:09.327Z,0.80
2019-01-13T13:46:12.930Z,1.10
2019-01-13T13:47:16.364Z,0.93
2019-01-13T13:48:19.800Z,0.80
2019-01-13T13:49:23.253Z,0.80
2019-01-13T13:50:27.153Z,0.70
2019-01-13T13:51:30.649Z,0.88
2019-01-13T13:52:34.073Z,0.62
2019-01-13T13:53:37.569Z,0.82
2019-01-13T13:54:41.058Z,0.60
2019-01-13T13:55:44.570Z,0.70
2019-01-13T13:56:47.992Z,0.70
2019-01-13T13:57:52.119Z,0.93
2019-01-13T13:58:55.613Z,0.70
2019-01-13T13:59:59.044Z,0.60
2019-01-13T14:01:02.495Z,0.60
2019-01-13T14:02:06.072Z,0.70
2019-01-13T14:03:09.503Z,0.75
2019-01-13T14:04:12.930Z,0.72
2019-01-13T14:05:16.539Z,0.50
2019-01-13T14:06:20.048Z,1.00
2019-01-13T14:07:23.475Z,0.68